Time;durP1;ratioP1;P1;durP2;ratioP2;P2;SDS_P1;SDS_P2;PMS_P1;PMS_P2;Temp;Humidity;BMP_temperature;BMP_pressure;BME280_temperature;BME280_humidity;BME280_pressure;Samples;Min_cycle;Max_cycle;Signal;HPM_P1;HPM_P2
2022/10/06 00:00:19;;;;;;;5.10;1.17;;;16.10;99.90;;;;;;6250278;28;20049;-83
2022/10/06 00:03:22;;;;;;;1.90;1.52;;;16.20;99.90;;;;;;6250244;28;20050;-83
2022/10/06 00:06:23;;;;;;;2.72;1.15;;;16.20;99.90;;;;;;6249716;28;20072;-82
2022/10/06 00:09:25;;;;;;;4.60;1.35;;;16.30;99.90;;;;;;6248889;28;20391;-82
2022/10/06 00:12:28;;;;;;;2.05;1.20;;;16.30;99.90;;;;;;6249590;28;20418;-82
2022/10/06 00:15:32;;;;;;;4.22;1.65;;;16.30;99.90;;;;;;6249287;28;20045;-82
2022/10/06 00:18:33;;;;;;;10.73;1.45;;;16.40;99.90;;;;;;6248410;28;20049;-81
2022/10/06 00:21:35;;;;;;;4.82;1.58;;;16.40;99.90;;;;;;6247752;28;20045;-82
2022/10/06 00:24:37;;;;;;;5.10;1.63;;;16.40;99.90;;;;;;6247881;28;20041;-82
2022/10/06 00:27:42;;;;;;;2.53;1.10;;;16.40;99.90;;;;;;6247580;28;20065;-83
2022/10/06 00:30:45;;;;;;;2.70;1.77;;;16.40;99.90;;;;;;6247374;28;20050;-82
2022/10/06 00:33:47;;;;;;;7.55;2.28;;;16.40;99.90;;;;;;6247801;28;20046;-82
2022/10/06 00:36:48;;;;;;;4.82;1.58;;;16.40;99.90;;;;;;6247671;28;20495;-81
2022/10/06 00:39:50;;;;;;;4.20;1.85;;;16.50;99.90;;;;;;6247277;28;20056;-81
2022/10/06 00:42:55;;;;;;;2.40;1.00;;;16.50;99.90;;;;;;6247417;28;20088;-82
2022/10/06 00:45:56;;;;;;;5.78;1.77;;;16.50;99.90;;;;;;6247828;28;20045;-82
2022/10/06 00:49:05;;;;;;;4.85;1.10;;;16.50;99.90;;;;;;6268984;22;20057;-79
2022/10/06 00:52:11;;;;;;;4.93;1.60;;;16.60;99.90;;;;;;6244652;28;20042;-78
2022/10/06 00:55:13;;;;;;;2.67;1.30;;;16.80;99.90;;;;;;6239576;28;20061;-79
2022/10/06 00:58:16;;;;;;;7.68;1.63;;;16.80;99.90;;;;;;6246524;28;20041;-79
2022/10/06 01:01:18;;;;;;;6.15;1.90;;;16.90;99.90;;;;;;6249105;28;20518;-77
2022/10/06 01:04:21;;;;;;;7.50;1.63;;;16.90;99.90;;;;;;6249079;28;20399;-78
2022/10/06 01:07:26;;;;;;;2.38;1.17;;;16.90;99.90;;;;;;6249325;28;20045;-80
2022/10/06 01:10:28;;;;;;;3.88;1.50;;;16.80;99.90;;;;;;6249238;28;20052;-78
2022/10/06 01:13:32;;;;;;;6.43;1.80;;;16.80;99.90;;;;;;6249302;28;20053;-78
2022/10/06 01:16:37;;;;;;;9.63;1.70;;;16.80;99.90;;;;;;6249393;28;20052;-78
2022/10/06 01:19:47;;;;;;;6.97;1.67;;;16.80;99.90;;;;;;6249462;28;20081;-78
2022/10/06 01:22:54;;;;;;;6.35;1.73;;;16.70;99.90;;;;;;6249246;28;20427;-78
2022/10/06 01:25:57;;;;;;;7.45;2.00;;;16.70;99.90;;;;;;6248822;28;20400;-79
2022/10/06 01:28:59;;;;;;;2.08;1.42;;;16.70;99.90;;;;;;6248784;28;20049;-78
2022/10/06 01:32:01;;;;;;;8.88;2.08;;;16.60;99.90;;;;;;6248836;28;20072;-78
2022/10/06 01:35:03;;;;;;;2.42;1.10;;;16.60;99.90;;;;;;6249525;28;20052;-78
2022/10/06 01:38:06;;;;;;;4.25;1.30;;;16.50;99.90;;;;;;6248381;28;20056;-78
2022/10/06 01:41:07;;;;;;;6.40;1.27;;;16.40;99.90;;;;;;6248264;28;20049;-78
2022/10/06 01:44:09;;;;;;;3.33;1.70;;;16.40;99.90;;;;;;6248645;28;20487;-78
2022/10/06 01:47:11;;;;;;;4.75;1.20;;;16.30;99.90;;;;;;6248699;28;20049;-79
2022/10/06 01:50:12;;;;;;;2.78;1.58;;;16.60;99.90;;;;;;6248097;28;20041;-80
2022/10/06 01:53:16;;;;;;;4.28;1.42;;;16.80;99.90;;;;;;6248219;28;20046;-78
2022/10/06 01:56:19;;;;;;;5.97;1.48;;;16.90;99.90;;;;;;6248003;28;20553;-78
2022/10/06 01:59:21;;;;;;;5.50;1.40;;;17.10;99.90;;;;;;6248094;28;20046;-80
2022/10/06 02:02:23;;;;;;;6.70;1.48;;;17.20;99.90;;;;;;6248964;28;20052;-79
2022/10/06 02:05:25;;;;;;;4.65;1.60;;;17.30;99.90;;;;;;6248767;28;20041;-78
2022/10/06 02:08:28;;;;;;;7.00;1.63;;;17.30;99.90;;;;;;6247563;28;20042;-79
2022/10/06 02:11:30;;;;;;;6.70;1.17;;;17.30;99.90;;;;;;6249134;28;20057;-80
2022/10/06 02:14:33;;;;;;;5.30;1.23;;;17.40;99.90;;;;;;6248823;28;20041;-81
2022/10/06 02:17:35;;;;;;;6.03;2.10;;;17.40;99.90;;;;;;6247988;28;20042;-79
2022/10/06 02:20:37;;;;;;;11.27;1.75;;;17.40;99.90;;;;;;6248310;28;20046;-79
2022/10/06 02:23:40;;;;;;;5.03;1.55;;;17.40;99.90;;;;;;6248568;28;20187;-79
2022/10/06 02:26:41;;;;;;;6.22;2.65;;;17.40;99.90;;;;;;6248886;28;20049;-78
2022/10/06 02:29:43;;;;;;;3.58;1.50;;;17.50;99.90;;;;;;6247906;28;20502;-78
2022/10/06 02:32:45;;;;;;;10.63;1.50;;;17.40;99.90;;;;;;6247896;28;20049;-79
2022/10/06 02:35:47;;;;;;;5.70;1.70;;;17.40;99.90;;;;;;6247869;28;20041;-79
2022/10/06 02:38:50;;;;;;;3.05;1.02;;;17.40;99.90;;;;;;6248152;28;20050;-79
2022/10/06 02:41:52;;;;;;;5.68;1.45;;;17.30;99.90;;;;;;6247668;28;20045;-79
2022/10/06 02:44:54;;;;;;;4.10;1.58;;;17.20;99.90;;;;;;6247966;28;20048;-78
2022/10/06 02:47:55;;;;;;;6.38;1.65;;;17.20;99.90;;;;;;6247334;28;20057;-79
2022/10/06 02:50:58;;;;;;;6.47;1.70;;;17.10;99.90;;;;;;6248330;28;20049;-78
2022/10/06 02:54:01;;;;;;;6.20;1.52;;;17.20;99.90;;;;;;6247632;28;20061;-79
2022/10/06 02:57:03;;;;;;;3.88;1.27;;;17.30;99.90;;;;;;6246933;28;20052;-81
2022/10/06 03:00:07;;;;;;;8.02;1.63;;;17.30;99.90;;;;;;6246046;28;20111;-79
2022/10/06 03:03:09;;;;;;;9.95;1.50;;;17.40;99.90;;;;;;6248263;28;20053;-78
2022/10/06 03:06:21;;;;;;;3.15;1.95;;;17.40;99.90;;;;;;6247168;28;20048;-79
2022/10/06 03:09:24;;;;;;;10.57;1.60;;;17.40;99.90;;;;;;6247069;28;20049;-78
2022/10/06 03:12:26;;;;;;;2.80;1.73;;;17.40;99.90;;;;;;6247247;28;20549;-80
2022/10/06 03:15:28;;;;;;;5.15;1.85;;;17.50;99.90;;;;;;6247899;28;20041;-80
2022/10/06 03:18:30;;;;;;;2.80;1.40;;;17.50;99.90;;;;;;6246691;28;20561;-79
2022/10/06 03:21:33;;;;;;;3.22;1.83;;;17.50;99.90;;;;;;6246595;28;20049;-78
2022/10/06 03:24:36;;;;;;;6.28;1.92;;;17.50;99.90;;;;;;6246774;28;20053;-78
2022/10/06 03:27:38;;;;;;;6.57;1.75;;;17.60;99.90;;;;;;6245988;28;20065;-77
2022/10/06 03:30:40;;;;;;;7.28;2.15;;;17.60;99.90;;;;;;6246474;28;20068;-78
2022/10/06 03:33:41;;;;;;;6.85;1.85;;;17.60;99.90;;;;;;6246158;28;20045;-79
2022/10/06 03:36:43;;;;;;;7.28;1.80;;;17.70;99.90;;;;;;6245971;28;20494;-81
2022/10/06 03:39:46;;;;;;;4.68;1.90;;;17.80;99.90;;;;;;6246047;28;20080;-78
2022/10/06 03:42:48;;;;;;;4.50;1.80;;;17.80;99.90;;;;;;6246112;28;20142;-78
2022/10/06 03:45:55;;;;;;;4.50;2.38;;;17.80;99.90;;;;;;6246051;28;20048;-80
2022/10/06 03:48:58;;;;;;;4.50;1.60;;;17.80;99.90;;;;;;6245679;28;20056;-78
2022/10/06 03:51:59;;;;;;;3.35;1.40;;;17.80;99.90;;;;;;6245749;28;20681;-78
2022/10/06 03:55:02;;;;;;;7.47;1.85;;;17.80;99.90;;;;;;6246656;28;20046;-79
2022/10/06 03:58:04;;;;;;;2.42;1.80;;;17.80;99.90;;;;;;6244953;28;20050;-79
2022/10/06 04:01:08;;;;;;;10.13;2.03;;;17.90;99.90;;;;;;6245081;28;20053;-78
2022/10/06 04:04:11;;;;;;;10.32;3.20;;;17.90;99.90;;;;;;6246038;28;20053;-79
2022/10/06 04:07:12;;;;;;;11.32;2.33;;;18.00;99.90;;;;;;6246309;28;20388;-80
2022/10/06 04:10:15;;;;;;;7.45;2.25;;;18.00;99.90;;;;;;6245627;28;20050;-79
2022/10/06 04:13:17;;;;;;;4.93;2.65;;;18.00;99.90;;;;;;6245652;28;20046;-78
2022/10/06 04:16:21;;;;;;;12.50;2.13;;;18.00;99.90;;;;;;6245746;28;20100;-80
2022/10/06 04:19:23;;;;;;;6.03;2.17;;;18.00;99.90;;;;;;6245931;28;20523;-78
2022/10/06 04:22:25;;;;;;;6.25;1.92;;;18.00;99.90;;;;;;6245916;28;20102;-79
2022/10/06 04:25:28;;;;;;;6.75;1.55;;;18.00;99.90;;;;;;6245689;28;20053;-78
2022/10/06 04:28:30;;;;;;;7.60;1.88;;;18.00;99.90;;;;;;6245325;28;20045;-78
2022/10/06 04:31:35;;;;;;;3.78;1.80;;;18.10;99.90;;;;;;6247490;28;20060;-80
2022/10/06 04:34:36;;;;;;;3.70;1.95;;;18.20;99.90;;;;;;6251084;28;20139;-80
2022/10/06 04:37:38;;;;;;;4.90;2.00;;;18.10;99.90;;;;;;6250363;28;20045;-79
2022/10/06 04:40:41;;;;;;;3.72;1.90;;;18.10;99.90;;;;;;6250324;28;20247;-79
2022/10/06 04:43:45;;;;;;;6.75;2.25;;;18.10;99.90;;;;;;6250699;28;20053;-79
2022/10/06 04:46:46;;;;;;;12.00;1.98;;;18.10;99.90;;;;;;6250703;28;20050;-79
2022/10/06 04:49:48;;;;;;;6.70;1.88;;;18.00;99.90;;;;;;6250064;28;20046;-80
2022/10/06 04:52:50;;;;;;;7.43;2.17;;;18.00;99.90;;;;;;6250614;28;20045;-79
2022/10/06 04:56:00;;;;;;;3.35;1.98;;;18.00;99.90;;;;;;6251030;28;20046;-79
2022/10/06 04:59:02;;;;;;;4.63;1.95;;;18.00;99.90;;;;;;6250218;28;20080;-78
2022/10/06 05:02:05;;;;;;;6.00;2.28;;;18.00;99.90;;;;;;6249611;28;20045;-79
2022/10/06 05:05:07;;;;;;;5.50;1.90;;;18.00;99.90;;;;;;6250032;28;20045;-79
2022/10/06 05:08:09;;;;;;;7.95;1.98;;;18.00;99.90;;;;;;6249920;28;20122;-79
2022/10/06 05:11:12;;;;;;;3.03;1.52;;;18.00;99.90;;;;;;6250650;28;20057;-79
2022/10/06 05:14:14;;;;;;;13.00;2.47;;;17.90;99.90;;;;;;6249979;28;20499;-79
2022/10/06 05:17:16;;;;;;;4.72;2.88;;;17.90;99.90;;;;;;6249645;28;20702;-79
2022/10/06 05:20:21;;;;;;;5.50;2.17;;;18.00;99.90;;;;;;6249808;28;20050;-82
2022/10/06 05:23:23;;;;;;;6.10;1.73;;;17.90;99.90;;;;;;6250274;28;20892;-79
2022/10/06 05:26:30;;;;;;;7.70;2.25;;;17.90;99.90;;;;;;6249636;28;20072;-80
2022/10/06 05:29:33;;;;;;;6.35;1.77;;;17.90;99.90;;;;;;6249487;28;20049;-80
2022/10/06 05:32:35;;;;;;;13.32;1.90;;;17.90;99.90;;;;;;6249747;28;20049;-79
2022/10/06 05:35:37;;;;;;;6.55;2.20;;;17.90;99.90;;;;;;6249521;28;20046;-79
2022/10/06 05:38:39;;;;;;;3.35;1.48;;;17.90;99.90;;;;;;6249516;28;20446;-79
2022/10/06 05:41:42;;;;;;;3.88;1.23;;;17.90;99.90;;;;;;6249148;28;20156;-79
2022/10/06 05:44:44;;;;;;;4.60;2.03;;;17.90;99.90;;;;;;6247431;28;20049;-79
2022/10/06 05:47:45;;;;;;;3.05;1.50;;;17.90;99.90;;;;;;6248383;28;20400;-79
2022/10/06 05:50:47;;;;;;;6.43;1.40;;;17.90;99.90;;;;;;6249309;28;20488;-79
2022/10/06 05:53:49;;;;;;;3.92;1.48;;;17.90;99.90;;;;;;6248665;28;20049;-79
2022/10/06 05:56:52;;;;;;;3.17;1.50;;;17.90;99.90;;;;;;6248808;28;20523;-80
2022/10/06 05:59:54;;;;;;;4.25;1.23;;;17.90;99.90;;;;;;6248064;28;20045;-79
2022/10/06 06:02:55;;;;;;;8.02;1.15;;;18.00;99.90;;;;;;6248180;28;20396;-79
2022/10/06 06:05:57;;;;;;;6.38;1.40;;;18.00;99.90;;;;;;6248348;28;20050;-81
2022/10/06 06:09:01;;;;;;;6.50;1.58;;;18.00;99.90;;;;;;6248348;28;20045;-78
2022/10/06 06:12:04;;;;;;;5.38;1.50;;;18.00;99.90;;;;;;6248646;28;20049;-80
2022/10/06 06:18:25;;;;;;;6.65;1.15;;;17.90;99.90;;;;;;6248388;28;20555;-79
2022/10/06 06:21:28;;;;;;;5.18;1.52;;;17.90;99.90;;;;;;6248054;28;20053;-79
2022/10/06 06:24:29;;;;;;;4.10;1.65;;;17.90;99.90;;;;;;6248457;28;20049;-79
2022/10/06 06:27:32;;;;;;;3.30;1.05;;;18.00;99.90;;;;;;6247840;28;20056;-78
2022/10/06 06:30:34;;;;;;;5.15;1.63;;;18.00;99.90;;;;;;6248166;28;20053;-79
2022/10/06 06:33:37;;;;;;;5.15;2.03;;;18.00;99.90;;;;;;6248120;28;20053;-79
2022/10/06 06:36:40;;;;;;;11.50;5.57;;;18.00;99.90;;;;;;6248273;28;20081;-79
2022/10/06 06:39:42;;;;;;;2.90;0.85;;;17.90;99.90;;;;;;6247793;28;20049;-79
2022/10/06 06:42:45;;;;;;;4.85;0.98;;;17.90;99.90;;;;;;6248354;28;20049;-78
2022/10/06 06:45:47;;;;;;;2.53;1.00;;;17.90;99.90;;;;;;6247445;28;20052;-80
2022/10/06 06:48:50;;;;;;;2.30;0.65;;;17.90;99.90;;;;;;6287562;22;20049;-79
2022/10/06 06:51:53;;;;;;;3.22;0.90;;;17.80;99.90;;;;;;6293020;28;20091;-82
2022/10/06 06:54:55;;;;;;;8.55;1.15;;;17.80;99.90;;;;;;6288894;28;20498;-81
2022/10/06 06:57:58;;;;;;;5.72;1.50;;;17.80;99.90;;;;;;6286805;28;20483;-81
2022/10/06 07:01:12;;;;;;;7.80;1.20;;;17.80;99.90;;;;;;6260986;28;20418;-80
2022/10/06 07:04:15;;;;;;;5.03;0.65;;;17.90;99.90;;;;;;6259325;28;20649;-81
2022/10/06 07:07:19;;;;;;;7.40;1.15;;;18.00;99.90;;;;;;6258493;28;20045;-81
2022/10/06 07:10:21;;;;;;;5.20;0.88;;;18.00;99.90;;;;;;6256823;28;20119;-81
2022/10/06 07:13:24;;;;;;;5.25;0.90;;;18.00;99.90;;;;;;6257281;28;20049;-80
2022/10/06 07:26:26;;;;;;;3.20;0.70;;;18.30;99.90;;;;;;6256306;28;20136;-81
2022/10/06 07:29:29;;;;;;;5.88;1.85;;;18.30;99.90;;;;;;6255423;28;20049;-81
2022/10/06 07:32:31;;;;;;;5.28;0.70;;;18.40;99.90;;;;;;6254481;28;20057;-81
2022/10/06 07:35:33;;;;;;;5.47;1.60;;;18.40;99.90;;;;;;6251772;28;20053;-82
2022/10/06 07:38:35;;;;;;;6.93;1.02;;;18.40;99.90;;;;;;6251529;28;20052;-81
2022/10/06 07:41:36;;;;;;;4.50;0.80;;;18.50;99.90;;;;;;6252179;28;20049;-79
2022/10/06 07:44:39;;;;;;;5.95;1.95;;;18.50;99.90;;;;;;6255149;28;20049;-80
2022/10/06 07:47:41;;;;;;;4.47;0.70;;;18.70;99.90;;;;;;6254402;28;20049;-80
2022/10/06 07:50:44;;;;;;;3.53;1.00;;;18.80;99.90;;;;;;6253604;28;20056;-81
2022/10/06 07:53:49;;;;;;;6.57;1.00;;;18.90;99.70;;;;;;6226675;28;20785;-80
2022/10/06 07:56:50;;;;;;;3.05;1.35;;;19.00;99.10;;;;;;6249072;28;20116;-80
2022/10/06 07:59:53;;;;;;;2.75;0.70;;;19.00;98.90;;;;;;6253645;28;20049;-81
2022/10/06 08:02:55;;;;;;;5.57;0.63;;;19.20;98.80;;;;;;6252727;28;20042;-81
2022/10/06 08:05:58;;;;;;;5.72;1.00;;;19.30;98.40;;;;;;6254182;28;20053;-81
2022/10/06 08:09:00;;;;;;;7.28;1.42;;;19.50;98.20;;;;;;6254747;28;20050;-79
2022/10/06 08:12:31;;;;;;;1.80;0.65;;;19.60;97.70;;;;;;6254358;28;20046;-81
2022/10/06 08:15:25;;;;;;;3.55;0.90;;;19.80;97.30;;;;;;6256626;28;20119;-81
2022/10/06 08:18:27;;;;;;;4.63;0.65;;;19.90;97.50;;;;;;6255878;28;20045;-81
2022/10/06 08:21:33;;;;;;;4.10;0.70;;;20.20;96.80;;;;;;6254736;28;20067;-81
2022/10/06 08:24:35;;;;;;;2.10;0.88;;;20.40;96.50;;;;;;6253000;28;20049;-80
2022/10/06 08:27:39;;;;;;;1.90;0.40;;;20.60;96.20;;;;;;6252771;28;20113;-81
2022/10/06 08:30:42;;;;;;;4.65;0.63;;;20.70;95.40;;;;;;6253120;28;20056;-82
2022/10/06 08:33:45;;;;;;;2.47;0.57;;;20.80;95.30;;;;;;6251584;28;20041;-82
2022/10/06 08:36:46;;;;;;;8.02;0.80;;;21.10;94.60;;;;;;6252736;28;20049;-82
2022/10/06 08:39:48;;;;;;;8.60;0.77;;;21.30;94.20;;;;;;6256202;28;20053;-83
2022/10/06 08:42:52;;;;;;;5.55;1.15;;;21.30;93.60;;;;;;6256187;28;20049;-83
2022/10/06 08:46:01;;;;;;;3.47;0.70;;;21.70;92.90;;;;;;6254677;28;20045;-83
2022/10/06 08:49:04;;;;;;;5.75;1.27;;;21.60;92.30;;;;;;6255169;28;20045;-83
2022/10/06 08:52:19;;;;;;;10.30;1.08;;;21.90;92.20;;;;;;6254580;28;20041;-82
2022/10/06 08:55:31;;;;;;;8.68;1.05;;;22.20;92.00;;;;;;6256198;28;20053;-81
2022/10/06 08:58:44;;;;;;;7.05;1.02;;;22.60;91.00;;;;;;6255406;28;20041;-83
2022/10/06 09:01:50;;;;;;;5.45;0.85;;;22.90;89.00;;;;;;6263223;28;20056;-83
2022/10/06 09:04:51;;;;;;;7.75;0.90;;;23.00;87.30;;;;;;6263488;28;20076;-83
2022/10/06 09:08:20;;;;;;;7.18;1.00;;;23.20;86.60;;;;;;6264215;28;20107;-83
2022/10/06 09:11:42;;;;;;;5.18;0.80;;;23.30;86.10;;;;;;6265065;28;20156;-83
2022/10/06 09:14:48;;;;;;;4.50;0.73;;;23.40;85.10;;;;;;6264249;28;20052;-84
2022/10/06 09:17:59;;;;;;;6.85;0.43;;;23.60;84.30;;;;;;6265854;28;20045;-84
2022/10/06 09:21:02;;;;;;;3.22;0.88;;;23.70;81.50;;;;;;6272470;28;20107;-82
2022/10/06 09:24:09;;;;;;;14.18;1.60;;;23.80;80.60;;;;;;6277049;28;20052;-83
2022/10/06 09:27:18;;;;;;;6.53;0.68;;;24.00;79.80;;;;;;6257071;28;20052;-81
2022/10/06 09:30:20;;;;;;;10.55;1.73;;;24.10;78.80;;;;;;6256202;28;20049;-82
2022/10/06 09:33:24;;;;;;;5.30;0.63;;;24.30;78.10;;;;;;6257805;28;20056;-82
2022/10/06 09:36:26;;;;;;;5.50;1.23;;;24.50;76.60;;;;;;6255662;28;20049;-81
2022/10/06 09:39:32;;;;;;;5.95;0.75;;;24.80;75.40;;;;;;6254758;28;20056;-82
2022/10/06 09:42:34;;;;;;;2.65;0.77;;;24.80;74.70;;;;;;6254281;28;20041;-82
2022/10/06 09:45:36;;;;;;;4.78;1.10;;;24.50;73.00;;;;;;6255411;28;20056;-81
2022/10/06 09:48:39;;;;;;;7.35;0.90;;;24.20;73.70;;;;;;6253904;28;20124;-82
2022/10/06 09:51:41;;;;;;;8.18;0.85;;;24.30;73.90;;;;;;6253264;28;20053;-82
2022/10/06 09:54:43;;;;;;;6.97;0.73;;;24.30;72.00;;;;;;6253558;28;20057;-82
2022/10/06 09:57:51;;;;;;;7.47;1.63;;;24.20;71.70;;;;;;6252326;28;20038;-83
2022/10/06 10:00:55;;;;;;;2.70;0.55;;;24.20;72.30;;;;;;6254052;28;20050;-82
2022/10/06 10:04:00;;;;;;;2.83;1.25;;;24.50;72.10;;;;;;6254229;28;20407;-82
2022/10/06 10:07:15;;;;;;;3.97;0.77;;;24.80;72.10;;;;;;6252708;28;20068;-83
2022/10/06 10:10:20;;;;;;;11.02;1.10;;;25.20;71.50;;;;;;6249594;28;20052;-83
2022/10/06 10:13:25;;;;;;;5.53;0.70;;;25.60;69.60;;;;;;6266450;28;20033;-81
2022/10/06 10:16:29;;;;;;;2.08;0.68;;;26.00;68.00;;;;;;6280318;28;20052;-81
2022/10/06 10:19:41;;;;;;;4.28;0.80;;;26.10;68.20;;;;;;6274059;28;20113;-83
2022/10/06 10:22:46;;;;;;;3.67;0.90;;;26.40;67.10;;;;;;6255999;28;20069;-82
2022/10/06 10:26:02;;;;;;;4.50;0.40;;;26.60;65.90;;;;;;6249749;28;20048;-82
2022/10/06 10:29:32;;;;;;;2.95;0.77;;;26.70;65.20;;;;;;6249037;28;20045;-83
2022/10/06 10:32:57;;;;;;;7.30;0.82;;;26.50;65.00;;;;;;6251448;28;20053;-82
2022/10/06 10:36:04;;;;;;;7.32;1.10;;;26.20;65.30;;;;;;6249268;28;20050;-82
2022/10/06 10:39:15;;;;;;;6.93;0.70;;;26.00;65.60;;;;;;6251329;28;20065;-82
2022/10/06 10:42:21;;;;;;;7.95;0.73;;;25.70;66.30;;;;;;6251101;28;20410;-82
2022/10/06 10:45:29;;;;;;;6.47;1.73;;;25.40;66.50;;;;;;6250800;28;20124;-82
2022/10/06 10:48:35;;;;;;;7.88;1.30;;;25.10;68.00;;;;;;6250097;28;20045;-82
2022/10/06 10:51:45;;;;;;;7.55;1.10;;;24.90;68.50;;;;;;6254091;28;20184;-82
2022/10/06 10:54:52;;;;;;;8.40;1.73;;;24.80;69.10;;;;;;6251943;28;20058;-82
2022/10/06 10:57:56;;;;;;;9.65;1.23;;;24.60;69.40;;;;;;6251660;28;20042;-82
2022/10/06 11:01:04;;;;;;;4.85;0.95;;;24.40;69.60;;;;;;6251862;28;20457;-82
2022/10/06 11:04:11;;;;;;;5.95;0.88;;;24.30;69.80;;;;;;6251890;28;20041;-83
2022/10/06 11:07:22;;;;;;;6.88;0.80;;;24.20;69.50;;;;;;6252789;28;20046;-81
2022/10/06 11:10:29;;;;;;;5.50;0.65;;;24.30;69.30;;;;;;6251678;28;20160;-81
2022/10/06 11:13:38;;;;;;;5.20;1.10;;;24.60;68.80;;;;;;6252782;28;20045;-83
2022/10/06 11:16:47;;;;;;;6.60;0.73;;;24.70;68.00;;;;;;6253634;28;20049;-82
2022/10/06 11:20:21;;;;;;;6.75;0.90;;;24.70;66.90;;;;;;6258544;22;20411;-82
2022/10/06 11:23:45;;;;;;;6.35;0.88;;;24.60;67.40;;;;;;6248454;28;20045;-81
2022/10/06 11:27:11;;;;;;;6.93;0.60;;;24.50;68.00;;;;;;6226422;28;20049;-81
2022/10/06 11:30:17;;;;;;;3.42;0.80;;;24.60;68.90;;;;;;6241160;28;20045;-82
2022/10/06 11:33:25;;;;;;;4.70;0.82;;;24.90;68.10;;;;;;6250370;28;20041;-82
2022/10/06 11:36:38;;;;;;;1.90;0.50;;;25.30;66.80;;;;;;6249496;28;20045;-82
2022/10/06 11:39:49;;;;;;;4.65;0.68;;;25.50;65.70;;;;;;6249874;28;20066;-83
2022/10/06 11:42:57;;;;;;;6.45;1.13;;;25.70;65.40;;;;;;6250663;28;20049;-82
2022/10/06 11:46:06;;;;;;;8.38;1.52;;;26.10;64.90;;;;;;6250073;28;20049;-82
2022/10/06 11:49:56;;;;;;;5.05;1.00;;;26.50;64.40;;;;;;6251063;28;20053;-81
2022/10/06 11:52:57;;;;;;;6.75;0.82;;;27.00;62.90;;;;;;6224657;28;20065;-81
2022/10/06 11:56:45;;;;;;;5.53;0.73;;;27.50;61.30;;;;;;6246351;28;20045;-83
2022/10/06 11:59:49;;;;;;;2.53;0.80;;;27.80;59.80;;;;;;6221725;28;20571;-82
2022/10/06 12:02:51;;;;;;;5.88;0.80;;;28.30;58.60;;;;;;6225432;28;20062;-83
2022/10/06 12:05:52;;;;;;;4.95;1.58;;;28.60;58.00;;;;;;6243684;28;20049;-83
2022/10/06 12:08:54;;;;;;;7.97;1.27;;;28.90;56.50;;;;;;6247775;28;20053;-85
2022/10/06 12:11:59;;;;;;;3.83;1.17;;;29.10;56.60;;;;;;6248499;28;20053;-83
2022/10/06 12:15:15;;;;;;;5.10;0.55;;;29.30;55.50;;;;;;6249240;28;20064;-84
2022/10/06 12:18:27;;;;;;;1.00;0.30;;;29.50;55.20;;;;;;6250005;28;20056;-83
2022/10/06 12:21:44;;;;;;;6.97;1.05;;;29.60;53.90;;;;;;6249844;28;20045;-82
2022/10/06 12:24:54;;;;;;;4.45;0.93;;;29.70;54.70;;;;;;6250038;28;20077;-82
2022/10/06 12:28:09;;;;;;;5.57;0.80;;;30.00;54.10;;;;;;6253277;28;20046;-82
2022/10/06 12:31:30;;;;;;;2.08;0.63;;;30.30;53.60;;;;;;6238349;28;20049;-84
2022/10/06 12:34:56;;;;;;;5.95;0.60;;;30.30;52.80;;;;;;6249905;28;20064;-82
2022/10/06 12:38:03;;;;;;;7.63;1.50;;;30.10;52.50;;;;;;6251220;28;20052;-82
2022/10/06 12:41:10;;;;;;;2.65;0.63;;;29.90;52.80;;;;;;6225119;28;20423;-82
2022/10/06 12:44:23;;;;;;;4.53;1.00;;;29.70;52.90;;;;;;6225466;28;20050;-82
2022/10/06 12:47:40;;;;;;;2.42;0.63;;;29.60;53.00;;;;;;6225824;28;20050;-85
2022/10/06 12:50:44;;;;;;;5.03;1.10;;;29.60;52.50;;;;;;6256066;22;20026;-81
2022/10/06 12:53:54;;;;;;;3.90;0.70;;;29.50;52.50;;;;;;6282380;28;20052;-80
2022/10/06 12:56:58;;;;;;;5.53;0.70;;;29.20;52.50;;;;;;6262761;28;20045;-79
2022/10/06 12:59:59;;;;;;;3.72;1.10;;;28.80;53.80;;;;;;6252654;28;20525;-79
2022/10/06 13:03:05;;;;;;;5.20;0.98;;;28.50;54.60;;;;;;6252915;28;20678;-79
2022/10/06 13:06:08;;;;;;;6.13;1.05;;;28.30;54.90;;;;;;6253192;28;20100;-79
2022/10/06 13:09:14;;;;;;;5.22;0.73;;;28.30;54.90;;;;;;6252019;28;20130;-80
2022/10/06 13:12:27;;;;;;;12.00;1.30;;;28.50;54.40;;;;;;6252240;28;20049;-80
2022/10/06 13:15:32;;;;;;;9.07;0.65;;;28.60;53.80;;;;;;6253398;28;20053;-80
2022/10/06 13:18:36;;;;;;;7.18;0.90;;;28.60;53.90;;;;;;6251976;28;20231;-80
2022/10/06 13:21:37;;;;;;;5.30;0.75;;;28.50;54.10;;;;;;6251848;28;20049;-79
2022/10/06 13:24:39;;;;;;;2.30;0.68;;;28.60;53.80;;;;;;6252732;28;20041;-80
2022/10/06 13:27:48;;;;;;;4.55;0.70;;;28.80;53.30;;;;;;6265704;28;20053;-81
2022/10/06 13:30:54;;;;;;;5.28;0.57;;;28.90;53.10;;;;;;6267574;28;20095;-80
2022/10/06 13:34:00;;;;;;;3.78;0.93;;;29.10;52.90;;;;;;6251947;28;20041;-79
2022/10/06 13:37:02;;;;;;;4.28;1.23;;;29.10;52.20;;;;;;6252364;28;20042;-80
2022/10/06 13:40:14;;;;;;;7.13;1.05;;;29.20;52.50;;;;;;6252514;28;20042;-80
2022/10/06 13:43:19;;;;;;;3.83;0.63;;;29.40;52.00;;;;;;6252220;28;20562;-80
2022/10/06 13:46:23;;;;;;;2.25;0.55;;;29.60;50.60;;;;;;6251431;28;20098;-81
2022/10/06 13:49:31;;;;;;;4.82;0.57;;;29.60;50.40;;;;;;6251471;28;20045;-80
2022/10/06 13:52:35;;;;;;;5.55;0.85;;;29.30;50.70;;;;;;6251365;28;20049;-80
2022/10/06 13:55:37;;;;;;;6.82;0.60;;;28.80;51.10;;;;;;6249990;28;20503;-79
2022/10/06 13:58:39;;;;;;;3.92;0.65;;;28.30;52.80;;;;;;6242970;28;20413;-79
2022/10/06 14:01:41;;;;;;;3.88;0.88;;;28.10;53.00;;;;;;6250788;28;20046;-79
2022/10/06 14:04:44;;;;;;;7.72;0.77;;;28.00;53.60;;;;;;6250260;28;20057;-80
2022/10/06 14:07:46;;;;;;;6.80;0.65;;;28.00;53.70;;;;;;6250652;28;20506;-79
2022/10/06 14:10:50;;;;;;;6.32;0.75;;;28.00;51.80;;;;;;6251612;28;20053;-80
2022/10/06 14:13:55;;;;;;;1.48;0.52;;;27.80;51.20;;;;;;6251242;28;20053;-80
2022/10/06 14:16:57;;;;;;;5.57;1.77;;;27.60;51.30;;;;;;6262524;28;20041;-80
2022/10/06 14:20:00;;;;;;;7.05;0.88;;;27.40;52.20;;;;;;6273503;28;20045;-79
2022/10/06 14:23:02;;;;;;;5.70;0.88;;;27.20;53.00;;;;;;6250731;28;20057;-80
2022/10/06 14:26:04;;;;;;;6.05;0.52;;;26.90;53.30;;;;;;6236974;28;20042;-78
2022/10/06 14:29:05;;;;;;;3.58;0.60;;;26.60;54.40;;;;;;6234467;28;20057;-80
2022/10/06 14:32:10;;;;;;;9.93;3.67;;;26.30;56.10;;;;;;6246906;28;20042;-82
2022/10/06 14:35:13;;;;;;;2.05;0.50;;;25.90;56.10;;;;;;6226760;28;20495;-79
2022/10/06 14:38:14;;;;;;;8.18;2.25;;;25.40;56.90;;;;;;6226633;28;20064;-81
2022/10/06 14:41:18;;;;;;;5.85;0.77;;;25.20;57.60;;;;;;6227079;28;20061;-82
2022/10/06 14:44:19;;;;;;;6.03;0.50;;;25.00;57.70;;;;;;6226304;28;20100;-79
2022/10/06 14:47:21;;;;;;;3.85;0.82;;;24.80;57.80;;;;;;6225545;28;20050;-79
2022/10/06 14:50:26;;;;;;;4.85;0.68;;;24.80;58.10;;;;;;6226054;28;20173;-81
2022/10/06 14:53:28;;;;;;;2.20;0.35;;;24.90;58.50;;;;;;6225907;28;20069;-81
2022/10/06 14:56:32;;;;;;;5.38;1.10;;;25.00;58.70;;;;;;6233193;28;20536;-79
2022/10/06 14:59:34;;;;;;;6.25;0.70;;;25.00;59.00;;;;;;6246313;28;20254;-80
2022/10/06 15:02:35;;;;;;;5.00;0.80;;;25.00;59.40;;;;;;6250937;28;20053;-81
2022/10/06 15:08:08;;;;;;;4.80;0.73;;;25.00;59.40;;;;;;6250871;28;20057;-79
2022/10/06 15:08:59;;;;;;;5.18;1.17;;;24.90;59.40;;;;;;6250091;28;20091;-79
2022/10/06 15:12:02;;;;;;;6.22;0.98;;;24.80;59.70;;;;;;6250077;28;20518;-79
2022/10/06 15:15:06;;;;;;;3.13;0.65;;;24.60;59.60;;;;;;6251571;28;20439;-80
2022/10/06 15:18:08;;;;;;;7.57;0.40;;;24.50;59.30;;;;;;6250675;28;20053;-80
2022/10/06 15:21:11;;;;;;;9.55;0.90;;;24.20;60.20;;;;;;6250278;28;20052;-79
2022/10/06 15:24:14;;;;;;;3.08;0.75;;;24.00;60.80;;;;;;6250611;28;20041;-81
2022/10/06 15:30:39;;;;;;;4.55;0.60;;;23.20;61.80;;;;;;6250343;28;20486;-80
2022/10/06 15:33:42;;;;;;;3.53;0.68;;;22.80;61.60;;;;;;6231710;28;20049;-82
2022/10/06 15:36:45;;;;;;;5.40;0.63;;;22.60;61.80;;;;;;6225702;28;20052;-79
2022/10/06 15:39:47;;;;;;;4.68;0.70;;;22.30;62.40;;;;;;6225695;28;20050;-81
2022/10/06 15:42:49;;;;;;;8.02;0.50;;;22.10;63.70;;;;;;6226229;28;20056;-80
2022/10/06 15:45:54;;;;;;;3.92;0.55;;;21.90;64.20;;;;;;6226836;28;20049;-79
2022/10/06 15:48:59;;;;;;;2.88;0.75;;;21.70;64.40;;;;;;6226342;28;20048;-81
2022/10/06 15:52:03;;;;;;;3.30;0.80;;;21.50;66.90;;;;;;6233067;28;20388;-81
2022/10/06 15:55:05;;;;;;;5.28;0.65;;;21.40;67.30;;;;;;6245437;28;20069;-80
2022/10/06 15:58:07;;;;;;;2.25;0.32;;;21.30;69.10;;;;;;6234377;28;20060;-81
2022/10/06 16:01:37;;;;;;;3.10;0.55;;;21.10;68.70;;;;;;6228967;28;20046;-80
2022/10/06 16:04:54;;;;;;;5.07;1.02;;;20.90;70.20;;;;;;6226352;28;20045;-80
2022/10/06 16:07:57;;;;;;;2.60;1.00;;;20.70;71.60;;;;;;6226018;28;20535;-80
2022/10/06 16:10:59;;;;;;;4.88;0.70;;;20.60;73.80;;;;;;6226775;28;20507;-80
2022/10/06 16:14:00;;;;;;;5.57;0.63;;;20.50;75.30;;;;;;6225942;28;20454;-80
2022/10/06 16:17:05;;;;;;;3.38;0.80;;;20.30;76.20;;;;;;6225804;28;20415;-80